createdAt,value
2023-02-18T00:01:41.486Z,12.20
2023-02-18T00:04:10.899Z,12.23
2023-02-18T00:06:39.671Z,12.24
2023-02-18T00:09:09.298Z,12.27
2023-02-18T00:11:39.573Z,12.25
2023-02-18T00:14:09.695Z,12.24
2023-02-18T00:16:38.540Z,12.25
2023-02-18T00:19:14.323Z,12.22
2023-02-18T00:21:43.229Z,12.20
2023-02-18T00:24:15.335Z,12.22
2023-02-18T00:26:44.459Z,12.17
2023-02-18T00:29:12.985Z,12.17
2023-02-18T00:31:43.381Z,12.17
2023-02-18T00:34:14.150Z,12.22
2023-02-18T00:36:42.470Z,12.18
2023-02-18T00:39:12.245Z,12.19
2023-02-18T00:41:41.317Z,12.19
2023-02-18T00:44:09.964Z,12.20
2023-02-18T00:46:38.653Z,12.22
2023-02-18T00:49:08.396Z,12.25
2023-02-18T00:51:38.392Z,12.26
2023-02-18T00:54:06.833Z,12.28
2023-02-18T00:56:35.555Z,12.26
2023-02-18T00:59:04.214Z,12.20
2023-02-18T01:01:32.524Z,12.17
2023-02-18T01:04:01.203Z,12.15
2023-02-18T01:06:30.418Z,12.13
2023-02-18T01:09:00.151Z,12.13
2023-02-18T01:11:31.037Z,12.12
2023-02-18T01:13:59.512Z,12.11
2023-02-18T01:16:30.357Z,12.14
2023-02-18T01:18:58.643Z,12.15
2023-02-18T01:21:27.569Z,12.12
2023-02-18T01:23:55.826Z,12.13
2023-02-18T01:26:25.682Z,12.16
2023-02-18T01:28:54.424Z,12.17
2023-02-18T01:31:22.841Z,12.16
2023-02-18T01:33:52.778Z,12.17
2023-02-18T01:36:22.116Z,12.19
2023-02-18T01:38:50.435Z,12.14
2023-02-18T01:41:18.754Z,12.15
2023-02-18T01:43:48.885Z,12.13
2023-02-18T01:46:21.248Z,12.14
2023-02-18T01:48:51.231Z,12.06
2023-02-18T01:51:23.305Z,12.14
2023-02-18T01:53:56.317Z,12.17
2023-02-18T01:56:29.162Z,12.20
2023-02-18T01:59:02.607Z,12.19
2023-02-18T02:01:33.634Z,12.19
2023-02-18T02:04:02.946Z,12.17
2023-02-18T02:06:31.215Z,12.15
2023-02-18T02:09:04.389Z,12.15
2023-02-18T02:11:54.062Z,12.14
2023-02-18T02:14:39.479Z,12.14
2023-02-18T02:17:14.740Z,12.13
2023-02-18T02:20:07.559Z,12.11
2023-02-18T02:22:50.382Z,12.03
2023-02-18T02:25:32.086Z,12.08
2023-02-18T02:28:24.270Z,12.09
2023-02-18T02:31:20.826Z,12.06
2023-02-18T02:34:38.530Z,12.04
2023-02-18T02:37:15.993Z,12.05
2023-02-18T02:39:52.615Z,12.08
2023-02-18T02:42:31.971Z,12.12
2023-02-18T02:45:05.558Z,12.13
2023-02-18T02:47:42.820Z,12.15
2023-02-18T02:50:15.329Z,12.17
2023-02-18T02:52:48.292Z,12.06
2023-02-18T02:55:17.298Z,12.10
2023-02-18T02:57:50.875Z,12.14
2023-02-18T03:00:39.086Z,12.16
2023-02-18T03:03:37.532Z,12.18
2023-02-18T03:06:44.874Z,12.16
2023-02-18T03:09:22.543Z,12.18
2023-02-18T03:11:58.375Z,12.19
2023-02-18T03:14:32.510Z,12.22
2023-02-18T03:17:08.754Z,12.23
2023-02-18T03:19:41.331Z,12.23
2023-02-18T03:22:15.001Z,12.22
2023-02-18T03:24:47.384Z,12.22
2023-02-18T03:27:21.474Z,12.23
2023-02-18T03:29:55.129Z,12.24
2023-02-18T03:32:25.567Z,12.23
2023-02-18T03:35:01.706Z,12.24
2023-02-18T03:37:35.680Z,12.24
2023-02-18T03:40:07.311Z,12.22
2023-02-18T03:42:35.788Z,12.23
2023-02-18T03:45:04.272Z,12.20
2023-02-18T03:47:32.934Z,12.20
2023-02-18T03:50:01.220Z,12.19
2023-02-18T03:52:29.591Z,12.19
2023-02-18T03:54:57.861Z,12.20
2023-02-18T03:57:27.509Z,12.23
2023-02-18T03:59:55.750Z,12.24
2023-02-18T04:02:24.040Z,12.23
2023-02-18T04:04:52.315Z,12.24
2023-02-18T04:07:20.720Z,12.24
2023-02-18T04:09:49.217Z,12.25
2023-02-18T04:12:17.460Z,12.25
2023-02-18T04:14:47.198Z,12.26
2023-02-18T04:17:15.543Z,12.27
2023-02-18T04:19:43.996Z,12.27
2023-02-18T04:22:12.641Z,12.29
2023-02-18T04:24:41.025Z,12.31
2023-02-18T04:27:09.288Z,12.31
2023-02-18T04:29:38.975Z,12.31
2023-02-18T04:32:08.801Z,12.32
2023-02-18T04:34:37.717Z,12.31
2023-02-18T04:37:08.119Z,12.31
2023-02-18T04:39:36.490Z,12.33
2023-02-18T04:42:08.971Z,12.33
2023-02-18T04:44:37.206Z,12.24
2023-02-18T04:47:06.668Z,12.27
2023-02-18T04:49:36.638Z,12.32
2023-02-18T04:52:05.533Z,12.32
2023-02-18T04:54:34.066Z,12.31
2023-02-18T04:57:02.339Z,12.30
2023-02-18T04:59:30.637Z,12.34
2023-02-18T05:01:58.905Z,12.35
2023-02-18T05:04:27.381Z,12.38
2023-02-18T05:06:57.102Z,12.38
2023-02-18T05:09:26.115Z,12.37
2023-02-18T05:11:55.075Z,12.37
2023-02-18T05:14:23.399Z,12.36
2023-02-18T05:16:51.654Z,12.36
2023-02-18T05:19:19.948Z,12.37
2023-02-18T05:21:48.189Z,12.36
2023-02-18T05:24:17.854Z,12.37
2023-02-18T05:26:46.239Z,12.37
2023-02-18T05:29:14.551Z,12.36
2023-02-18T05:31:43.189Z,12.37
2023-02-18T05:34:11.492Z,12.37
2023-02-18T05:36:40.061Z,12.35
2023-02-18T05:39:08.704Z,12.34
2023-02-18T05:41:38.384Z,12.35
2023-02-18T05:44:24.325Z,12.34
2023-02-18T05:46:52.598Z,12.30
2023-02-18T05:49:20.828Z,12.31
2023-02-18T05:51:49.339Z,12.34
2023-02-18T05:54:17.919Z,12.35
2023-02-18T05:56:47.547Z,12.37
2023-02-18T05:59:16.411Z,12.35
2023-02-18T06:01:45.205Z,12.33
2023-02-18T06:04:13.932Z,12.29
2023-02-18T06:06:42.512Z,12.27
2023-02-18T06:09:11.129Z,12.27
2023-02-18T06:11:39.589Z,12.24
2023-02-18T06:14:09.399Z,12.21
2023-02-18T06:16:37.703Z,12.18
2023-02-18T06:19:06.055Z,12.16
2023-02-18T06:21:34.409Z,12.15
2023-02-18T06:24:02.761Z,12.16
2023-02-18T06:26:31.076Z,12.18
2023-02-18T06:28:59.390Z,12.20
2023-02-18T06:31:30.166Z,12.18
2023-02-18T06:33:58.721Z,12.17
2023-02-18T06:36:27.993Z,12.14
2023-02-18T06:38:57.640Z,12.14
2023-02-18T06:41:25.918Z,12.13
2023-02-18T06:43:54.444Z,12.13
2023-02-18T06:46:22.889Z,12.11
2023-02-18T06:48:52.645Z,12.13
2023-02-18T06:51:20.963Z,12.11
2023-02-18T06:53:50.263Z,12.10
2023-02-18T06:56:18.674Z,12.07
2023-02-18T06:58:47.003Z,12.03
2023-02-18T07:01:15.383Z,12.01
2023-02-18T07:03:43.701Z,12.00
2023-02-18T07:06:13.696Z,12.00
2023-02-18T07:08:42.631Z,12.03
2023-02-18T07:11:10.901Z,12.04
2023-02-18T07:13:39.220Z,12.04
2023-02-18T07:16:08.117Z,12.07
2023-02-18T07:18:36.727Z,12.07
2023-02-18T07:21:05.919Z,12.10
2023-02-18T07:23:35.794Z,12.07
2023-02-18T07:26:06.263Z,12.07
2023-02-18T07:28:34.958Z,12.09
2023-02-18T07:31:03.314Z,12.13
2023-02-18T07:33:32.048Z,12.15
2023-02-18T07:36:02.834Z,12.17
2023-02-18T07:38:32.262Z,12.19
2023-02-18T07:41:01.986Z,12.22
2023-02-18T07:43:30.545Z,12.22
2023-02-18T07:45:58.853Z,12.23
2023-02-18T07:48:27.170Z,12.22
2023-02-18T07:50:55.442Z,12.21
2023-02-18T07:53:23.795Z,12.26
2023-02-18T07:55:52.144Z,12.32
2023-02-18T07:58:24.434Z,12.37
2023-02-18T08:00:53.661Z,12.31
2023-02-18T08:03:25.345Z,12.39
2023-02-18T08:05:54.249Z,12.41
2023-02-18T08:08:24.404Z,12.48
2023-02-18T08:10:54.280Z,12.48
2023-02-18T08:13:24.276Z,12.49
2023-02-18T08:15:55.811Z,12.49
2023-02-18T08:18:25.503Z,12.50
2023-02-18T08:20:54.536Z,12.52
2023-02-18T08:23:25.691Z,12.58
2023-02-18T08:25:55.385Z,12.61
2023-02-18T08:28:25.886Z,12.68
2023-02-18T08:30:55.744Z,12.74
2023-02-18T08:33:25.184Z,12.84
2023-02-18T08:35:55.295Z,13.04
2023-02-18T08:38:24.933Z,13.21
2023-02-18T08:41:02.109Z,13.31
2023-02-18T08:43:32.083Z,13.60
2023-02-18T08:46:00.751Z,13.80
2023-02-18T08:48:30.083Z,13.98
2023-02-18T08:50:58.743Z,14.13
2023-02-18T08:53:27.233Z,14.22
2023-02-18T08:55:55.465Z,14.17
2023-02-18T08:58:23.747Z,14.11
2023-02-18T09:00:53.443Z,14.08
2023-02-18T09:03:21.722Z,14.06
2023-02-18T09:05:49.991Z,14.02
2023-02-18T09:08:19.104Z,13.91
2023-02-18T09:10:47.387Z,13.83
2023-02-18T09:13:15.745Z,13.79
2023-02-18T09:15:44.032Z,13.78
2023-02-18T09:18:13.992Z,13.77
2023-02-18T09:20:42.330Z,13.75
2023-02-18T09:23:11.037Z,13.75
2023-02-18T09:25:41.084Z,13.70
2023-02-18T09:28:09.368Z,13.66
2023-02-18T09:30:37.727Z,13.57
2023-02-18T09:33:06.089Z,13.51
2023-02-18T09:35:39.816Z,13.49
2023-02-18T09:38:08.803Z,13.53
2023-02-18T09:40:39.642Z,13.53
2023-02-18T09:43:08.554Z,13.59
2023-02-18T09:45:36.814Z,13.77
2023-02-18T09:48:06.885Z,14.02
2023-02-18T09:50:36.728Z,14.68
2023-02-18T09:53:05.519Z,15.57
2023-02-18T09:55:36.471Z,16.37
2023-02-18T09:58:07.939Z,17.10
2023-02-18T10:00:39.433Z,17.48
2023-02-18T10:03:12.658Z,17.34
2023-02-18T10:05:51.812Z,16.89
2023-02-18T10:08:24.187Z,16.37
2023-02-18T10:10:52.625Z,15.94
2023-02-18T10:13:24.033Z,15.63
2023-02-18T10:15:53.694Z,15.39
2023-02-18T10:21:07.766Z,15.22
2023-02-18T10:23:40.288Z,15.08
2023-02-18T10:26:11.363Z,14.80
2023-02-18T10:28:39.708Z,14.85
2023-02-18T10:31:11.714Z,14.87
2023-02-18T10:33:47.581Z,14.88
2023-02-18T10:36:26.206Z,14.90
2023-02-18T10:39:10.440Z,14.89
2023-02-18T10:41:48.637Z,15.01
2023-02-18T10:44:25.591Z,15.18
2023-02-18T10:47:05.290Z,15.09
2023-02-18T10:49:52.121Z,15.01
2023-02-18T10:52:22.763Z,14.91
2023-02-18T10:54:59.090Z,14.79
2023-02-18T10:57:28.189Z,14.73
2023-02-18T10:59:59.482Z,14.63
2023-02-18T11:02:31.528Z,14.62
2023-02-18T11:05:06.783Z,14.62
2023-02-18T11:07:39.169Z,14.67
2023-02-18T11:10:15.671Z,14.64
2023-02-18T11:12:48.092Z,14.83
2023-02-18T11:15:20.801Z,14.87
2023-02-18T11:17:49.478Z,14.78
2023-02-18T11:20:29.740Z,14.67
2023-02-18T11:23:21.420Z,14.50
2023-02-18T11:26:03.427Z,14.47
2023-02-18T11:28:41.807Z,14.40
2023-02-18T11:31:12.858Z,14.31
2023-02-18T11:33:45.495Z,14.28
2023-02-18T11:36:24.467Z,14.28
2023-02-18T11:38:56.698Z,14.26
2023-02-18T11:41:33.829Z,14.22
2023-02-18T11:44:04.298Z,14.19
2023-02-18T11:46:32.862Z,14.17
2023-02-18T11:49:22.641Z,14.26
2023-02-18T11:51:51.734Z,14.55
2023-02-18T11:54:30.083Z,14.88
2023-02-18T11:57:01.290Z,15.18
2023-02-18T11:59:33.350Z,15.44
2023-02-18T12:02:13.942Z,15.60
2023-02-18T12:04:46.047Z,15.56
2023-02-18T12:07:21.436Z,15.33
2023-02-18T12:09:54.953Z,15.08
2023-02-18T12:12:29.689Z,14.88
2023-02-18T12:14:59.276Z,14.75
2023-02-18T12:17:59.603Z,14.71
2023-02-18T12:20:48.775Z,14.93
2023-02-18T12:23:23.688Z,15.33
2023-02-18T12:26:02.211Z,15.61
2023-02-18T12:28:48.621Z,15.78
2023-02-18T12:31:42.423Z,15.88
2023-02-18T12:34:26.020Z,15.93
2023-02-18T12:37:05.237Z,15.91
2023-02-18T12:39:51.187Z,15.72
2023-02-18T12:42:41.120Z,15.44
2023-02-18T12:45:32.302Z,15.35
2023-02-18T12:48:16.196Z,15.26
2023-02-18T12:51:04.881Z,15.17
2023-02-18T12:53:45.665Z,15.10
2023-02-18T12:56:35.367Z,15.11
2023-02-18T12:59:17.451Z,15.10
2023-02-18T13:01:58.070Z,14.98
2023-02-18T13:04:37.569Z,15.04
2023-02-18T13:07:37.788Z,15.06
2023-02-18T13:10:38.151Z,15.04
2023-02-18T13:13:13.637Z,14.97
2023-02-18T13:15:48.104Z,14.95
2023-02-18T13:18:21.315Z,15.03
2023-02-18T13:20:54.383Z,15.08
2023-02-18T13:23:27.046Z,15.15
2023-02-18T13:26:02.088Z,15.18
2023-02-18T13:28:37.358Z,15.16
2023-02-18T13:31:24.569Z,15.08
2023-02-18T13:34:00.213Z,15.15
2023-02-18T13:36:38.211Z,15.11
2023-02-18T13:39:09.318Z,14.99
2023-02-18T13:41:39.312Z,14.87
2023-02-18T13:44:31.674Z,14.91
2023-02-18T13:47:01.435Z,14.87
2023-02-18T13:49:35.180Z,14.77
2023-02-18T13:52:05.238Z,14.72
2023-02-18T13:54:39.725Z,14.68
2023-02-18T13:57:16.040Z,14.58
2023-02-18T13:59:47.529Z,14.55
2023-02-18T14:02:35.643Z,14.61
2023-02-18T14:05:23.019Z,14.75
2023-02-18T14:07:53.420Z,14.89
2023-02-18T14:10:39.773Z,14.81
2023-02-18T14:13:26.245Z,14.82
2023-02-18T14:15:58.263Z,14.78
2023-02-18T14:18:34.865Z,14.77
2023-02-18T14:21:24.047Z,14.66
2023-02-18T14:24:02.081Z,14.67
2023-02-18T14:26:36.515Z,14.62
2023-02-18T14:29:10.058Z,14.57
2023-02-18T14:31:56.502Z,14.56
2023-02-18T14:35:08.738Z,14.57
2023-02-18T14:38:05.756Z,14.59
2023-02-18T14:41:13.599Z,14.59
2023-02-18T14:43:59.697Z,14.62
2023-02-18T14:46:37.921Z,14.65
2023-02-18T14:49:27.842Z,14.64
2023-02-18T14:51:59.636Z,14.61
2023-02-18T14:54:31.484Z,14.64
2023-02-18T14:57:02.909Z,14.55
2023-02-18T14:59:35.469Z,14.56
2023-02-18T15:02:03.767Z,14.62
2023-02-18T15:04:32.469Z,14.65
2023-02-18T15:07:03.914Z,14.64
2023-02-18T15:09:33.210Z,14.56
2023-02-18T15:12:06.178Z,14.51
2023-02-18T15:14:37.608Z,14.42
2023-02-18T15:17:07.585Z,14.41
2023-02-18T15:19:41.089Z,14.43
2023-02-18T15:22:16.804Z,14.45
2023-02-18T15:24:45.284Z,14.41
2023-02-18T15:27:15.904Z,14.39
2023-02-18T15:29:44.276Z,14.31
2023-02-18T15:32:18.474Z,14.24
2023-02-18T15:34:47.490Z,14.20
2023-02-18T15:37:17.254Z,14.10
2023-02-18T15:39:45.468Z,14.08
2023-02-18T15:42:21.558Z,14.04
2023-02-18T15:44:53.289Z,13.97
2023-02-18T15:47:22.803Z,13.90
2023-02-18T15:49:54.187Z,13.91
2023-02-18T15:52:28.764Z,13.91
2023-02-18T15:54:58.475Z,13.81
2023-02-18T15:57:30.506Z,13.87
2023-02-18T16:00:14.519Z,13.76
2023-02-18T16:02:54.181Z,13.71
2023-02-18T16:05:27.035Z,13.68
2023-02-18T16:08:00.564Z,13.65
2023-02-18T16:10:45.168Z,13.65
2023-02-18T16:13:16.950Z,13.66
2023-02-18T16:15:47.899Z,13.67
2023-02-18T16:18:29.916Z,13.66
2023-02-18T16:21:06.090Z,13.62
2023-02-18T16:23:43.476Z,13.62
2023-02-18T16:26:23.943Z,13.59
2023-02-18T16:28:54.063Z,13.62
2023-02-18T16:31:22.749Z,13.63
2023-02-18T16:33:51.282Z,13.64
2023-02-18T16:36:20.490Z,13.59
2023-02-18T16:38:50.080Z,13.59
2023-02-18T16:41:18.808Z,13.56
2023-02-18T16:43:46.989Z,13.50
2023-02-18T16:46:18.259Z,13.46
2023-02-18T16:48:50.525Z,13.43
2023-02-18T16:51:22.240Z,13.42
2023-02-18T16:53:53.819Z,13.33
2023-02-18T16:56:24.077Z,13.24
2023-02-18T16:58:52.911Z,13.22
2023-02-18T17:01:27.026Z,13.24
2023-02-18T17:03:55.666Z,13.21
2023-02-18T17:06:24.179Z,13.19
2023-02-18T17:08:54.816Z,13.22
2023-02-18T17:11:25.951Z,13.20
2023-02-18T17:13:55.495Z,13.16
2023-02-18T17:16:24.141Z,13.16
2023-02-18T17:18:52.507Z,13.11
2023-02-18T17:21:22.626Z,13.11
2023-02-18T17:23:51.528Z,13.12
2023-02-18T17:26:24.726Z,13.13
2023-02-18T17:28:53.989Z,13.13
2023-02-18T17:31:26.202Z,13.11
2023-02-18T17:33:55.180Z,13.07
2023-02-18T17:36:23.562Z,13.02
2023-02-18T17:38:51.723Z,12.99
2023-02-18T17:41:21.382Z,12.94
2023-02-18T17:43:49.621Z,12.91
2023-02-18T17:46:20.352Z,12.90
2023-02-18T17:48:48.754Z,12.88
2023-02-18T17:51:25.350Z,12.91
2023-02-18T17:53:54.074Z,12.91
2023-02-18T17:56:24.256Z,12.94
2023-02-18T17:58:52.554Z,12.91
2023-02-18T18:01:23.434Z,12.89
2023-02-18T18:03:51.701Z,12.90
2023-02-18T18:06:21.801Z,12.91
2023-02-18T18:08:50.446Z,12.91
2023-02-18T18:11:21.579Z,12.94
2023-02-18T18:13:52.884Z,12.94
2023-02-18T18:16:22.231Z,12.92
2023-02-18T18:18:50.414Z,12.91
2023-02-18T18:21:23.053Z,12.89
2023-02-18T18:23:51.902Z,12.87
2023-02-18T18:26:20.198Z,12.87
2023-02-18T18:28:48.464Z,12.86
2023-02-18T18:31:20.077Z,12.89
2023-02-18T18:33:51.521Z,12.89
2023-02-18T18:36:21.397Z,12.92
2023-02-18T18:38:49.951Z,12.97
2023-02-18T18:41:20.556Z,12.96
2023-02-18T18:43:49.405Z,12.92
2023-02-18T18:46:19.370Z,12.91
2023-02-18T18:48:47.652Z,12.92
2023-02-18T18:51:17.154Z,12.92
2023-02-18T18:53:45.688Z,12.92
2023-02-18T18:56:14.653Z,12.93
2023-02-18T18:58:42.969Z,12.94
2023-02-18T19:01:17.217Z,12.96
2023-02-18T19:03:47.585Z,12.95
2023-02-18T19:06:17.910Z,12.96
2023-02-18T19:08:47.928Z,12.97
2023-02-18T19:11:17.308Z,12.98
2023-02-18T19:13:46.186Z,12.94
2023-02-18T19:16:19.279Z,12.94
2023-02-18T19:18:49.441Z,12.93
2023-02-18T19:21:17.943Z,12.92
2023-02-18T19:23:46.648Z,12.89
2023-02-18T19:26:17.402Z,12.90
2023-02-18T19:28:45.718Z,12.91
2023-02-18T19:31:14.513Z,12.85
2023-02-18T19:33:45.668Z,12.83
2023-02-18T19:36:16.781Z,12.86
2023-02-18T19:38:45.598Z,12.87
2023-02-18T19:41:17.020Z,12.88
2023-02-18T19:43:47.589Z,12.88
2023-02-18T19:46:17.836Z,12.89
2023-02-18T19:48:51.073Z,12.90
2023-02-18T19:51:21.856Z,12.89
2023-02-18T19:53:50.130Z,12.87
2023-02-18T19:56:18.336Z,12.88
2023-02-18T19:58:46.592Z,12.88
2023-02-18T20:01:16.145Z,12.89
2023-02-18T20:03:45.419Z,12.85
2023-02-18T20:06:17.783Z,12.81
2023-02-18T20:08:47.295Z,12.71
2023-02-18T20:11:15.580Z,12.75
2023-02-18T20:13:43.874Z,12.73
2023-02-18T20:16:12.353Z,12.73
2023-02-18T20:18:40.756Z,12.76
2023-02-18T20:21:11.991Z,12.79
2023-02-18T20:23:42.034Z,12.85
2023-02-18T20:26:12.960Z,12.83
2023-02-18T20:28:41.219Z,12.83
2023-02-18T20:31:12.423Z,12.87
2023-02-18T20:33:42.770Z,12.90
2023-02-18T20:36:12.107Z,12.89
2023-02-18T20:38:40.857Z,12.89
2023-02-18T20:41:14.069Z,12.84
2023-02-18T20:43:42.530Z,12.83
2023-02-18T20:46:13.832Z,12.79
2023-02-18T20:48:42.221Z,12.79
2023-02-18T20:51:12.173Z,12.80
2023-02-18T20:53:41.983Z,12.79
2023-02-18T20:56:12.139Z,12.79
2023-02-18T20:58:40.749Z,12.82
2023-02-18T21:01:11.270Z,12.84
2023-02-18T21:03:43.806Z,12.85
2023-02-18T21:06:13.986Z,12.77
2023-02-18T21:08:42.947Z,12.84
2023-02-18T21:11:14.851Z,12.85
2023-02-18T21:13:43.471Z,12.83
2023-02-18T21:16:11.721Z,12.84
2023-02-18T21:18:40.105Z,12.85
2023-02-18T21:21:10.373Z,12.87
2023-02-18T21:23:39.664Z,12.89
2023-02-18T21:26:09.486Z,12.88
2023-02-18T21:28:40.078Z,12.89
2023-02-18T21:31:16.688Z,12.92
2023-02-18T21:33:45.011Z,12.91
2023-02-18T21:36:14.316Z,12.91
2023-02-18T21:38:44.766Z,12.89
2023-02-18T21:41:13.773Z,12.86
2023-02-18T21:43:46.073Z,12.87
2023-02-18T21:46:15.824Z,12.74
2023-02-18T21:49:01.788Z,12.78
2023-02-18T21:51:47.882Z,12.76
2023-02-18T21:54:17.486Z,12.77
2023-02-18T21:56:45.833Z,12.75
2023-02-18T21:59:15.434Z,12.78
2023-02-18T22:01:44.598Z,12.77
2023-02-18T22:04:13.302Z,12.79
2023-02-18T22:06:41.829Z,12.78
2023-02-18T22:09:10.229Z,12.77
2023-02-18T22:11:38.510Z,12.75
2023-02-18T22:14:07.067Z,12.76
2023-02-18T22:16:36.984Z,12.76
2023-02-18T22:19:05.784Z,12.74
2023-02-18T22:21:34.072Z,12.69
2023-02-18T22:24:02.359Z,12.60
2023-02-18T22:26:30.590Z,12.55
2023-02-18T22:29:00.372Z,12.52
2023-02-18T22:31:30.395Z,12.51
2023-02-18T22:34:01.253Z,12.55
2023-02-18T22:36:30.874Z,12.56
2023-02-18T22:39:00.505Z,12.57
2023-02-18T22:41:30.670Z,12.63
2023-02-18T22:44:00.766Z,12.58
2023-02-18T22:46:30.387Z,12.57
2023-02-18T22:49:00.771Z,12.54
2023-02-18T22:51:31.335Z,12.54
2023-02-18T22:54:01.966Z,12.57
2023-02-18T22:56:30.868Z,12.57
2023-02-18T22:59:00.229Z,12.56
2023-02-18T23:01:30.245Z,12.55
2023-02-18T23:04:05.420Z,12.51
2023-02-18T23:06:34.270Z,12.49
2023-02-18T23:09:02.491Z,12.44
2023-02-18T23:11:30.741Z,12.40
2023-02-18T23:14:16.465Z,12.37
2023-02-18T23:17:02.475Z,12.35
2023-02-18T23:19:33.378Z,12.36
2023-02-18T23:22:01.883Z,12.37
2023-02-18T23:24:32.336Z,12.39
2023-02-18T23:27:00.548Z,12.41
2023-02-18T23:29:29.170Z,12.40
2023-02-18T23:31:57.538Z,12.35
2023-02-18T23:34:25.938Z,12.25
2023-02-18T23:36:55.875Z,12.19
2023-02-18T23:39:24.708Z,12.14
2023-02-18T23:41:53.708Z,12.11
2023-02-18T23:44:23.796Z,12.09
2023-02-18T23:46:52.654Z,12.07
2023-02-18T23:49:23.203Z,12.04
2023-02-18T23:51:52.131Z,11.98
2023-02-18T23:54:22.398Z,11.98
2023-02-18T23:56:50.767Z,12.00
2023-02-18T23:59:19.465Z,12.06
